Etusivu
Sääsatelliitin kuvat 15 päivän ennusteIlmastoMerisää Sykloni Salama LentoasemaUKK Newsletter Tietoja
Sää : Eurooppa Afrikka Pohjois-Amerikka Etelä-Amerikka Aasia Australia-Oseania Muut
Kielillä Yhteystiedot

Kittilä, Suomi

Leveyspiiri: 67-42N, Pituuspiiri: 024-51E, korkeus: 196 m


METAR: EFKT 242150Z AUTO 29007KT 9999 OVC037 03/M05 Q1022
short-TAF: EFKT 241727Z 2418/2421 31010KT CAVOK
long-TAF: vanhentunut (20802 tuntia)

Aika: 01:05 (22:05 UTC)

Tämänhetkinen sää

Tämä raportti tehtiin 15 minuuttia sitten, kello 21:50 UTC  
Tuuli 07 kt alkaen länsi/luode
Lämpötila 3°C
Kosteus 56%
Ilmanpaine 1022 hPa
Näkyvyys 10 km tai enemmän
täysin pilvinen klo korkeus 3700 ft

Mittayksikkö

Sääennuste

Tämä raportti tehtiin 4 tuntia ja 23 minuuttia sitten, kello 17:42 UTC  
Ennuste voimassa 24 klo 18 UTC - 24 klo 21 UTC
Tuuli 10 kt alkaen luode
Näkyvyys 10 km tai enemmän
ei ollut pilviä alle 1500m eikä cumulonimbus pilviä
Tällä sivustolla oleviin tietoihin liittyy vastuuvapauslauseke
Sää : Eurooppa Afrikka Pohjois-Amerikka Etelä-Amerikka Aasia Australia-Oseania Muut
Sääsatelliitin kuvat 15 päivän ennusteIlmastoMerisää Sykloni Salama LentoasemaUKK Kielillä Yhteystiedot Newsletter Tietoja